Time;durP1;ratioP1;P1;durP2;ratioP2;P2;SDS_P1;SDS_P2;PMS_P1;PMS_P2;Temp;Humidity;BMP_temperature;BMP_pressure;BME280_temperature;BME280_humidity;BME280_pressure;Samples;Min_cycle;Max_cycle;Signal;HPM_P1;HPM_P2
2023/10/25 00:00:51;;;;;;;24.30;17.40;;;;;;;8.31;100.00;100464.02;109116;1253;72692;-47
2023/10/25 00:03:19;;;;;;;22.40;16.80;;;;;;;8.31;100.00;100455.98;109003;1250;61885;-49
2023/10/25 00:05:46;;;;;;;29.20;17.90;;;;;;;8.32;100.00;100454.34;109014;1253;59941;-48
2023/10/25 00:08:13;;;;;;;30.90;19.50;;;;;;;8.33;100.00;100453.77;106244;1251;74650;-49
2023/10/25 00:10:41;;;;;;;23.30;17.40;;;;;;;8.35;100.00;100451.38;104797;1250;68028;-49
2023/10/25 00:13:08;;;;;;;21.50;16.00;;;;;;;8.37;100.00;100445.98;104652;1257;71518;-49
2023/10/25 00:15:36;;;;;;;23.60;16.40;;;;;;;8.39;100.00;100443.07;104658;1251;61766;-49
2023/10/25 00:18:03;;;;;;;22.70;16.20;;;;;;;8.42;100.00;100436.39;109011;1251;58823;-52
2023/10/25 00:20:30;;;;;;;20.70;15.60;;;;;;;8.44;100.00;100431.63;108066;1253;72948;-50
2023/10/25 00:22:58;;;;;;;22.60;16.70;;;;;;;8.46;100.00;100427.48;104907;1254;66321;-50
2023/10/25 00:25:26;;;;;;;22.40;16.70;;;;;;;8.47;100.00;100427.64;104905;1254;71926;-48
2023/10/25 00:27:53;;;;;;;26.50;18.00;;;;;;;8.46;100.00;100423.17;104757;1259;61757;-47
2023/10/25 00:30:21;;;;;;;28.60;17.90;;;;;;;8.46;100.00;100419.07;104786;1259;60468;-49
2023/10/25 00:32:48;;;;;;;22.90;18.20;;;;;;;8.46;100.00;100416.04;104805;1253;72356;-48
2023/10/25 00:35:16;;;;;;;21.30;16.50;;;;;;;8.45;100.00;100413.90;104776;1253;66837;-49
2023/10/25 00:37:43;;;;;;;27.30;20.30;;;;;;;8.42;100.00;100407.56;104816;1257;71519;-48
2023/10/25 00:40:11;;;;;;;26.10;18.40;;;;;;;8.38;100.00;100400.35;104858;1256;62068;-49
2023/10/25 00:42:38;;;;;;;24.30;18.10;;;;;;;8.33;100.00;100391.37;105545;1256;59155;-49
2023/10/25 00:45:07;;;;;;;21.80;16.60;;;;;;;8.29;100.00;100391.45;104809;1250;73898;-49
2023/10/25 00:47:35;;;;;;;24.80;17.10;;;;;;;8.25;100.00;100385.83;107460;1253;66385;-50
2023/10/25 00:50:03;;;;;;;23.90;17.10;;;;;;;8.22;100.00;100380.91;104783;1259;72718;-48
2023/10/25 00:52:31;;;;;;;21.70;15.50;;;;;;;8.20;100.00;100378.29;104801;1257;61810;-48
2023/10/25 00:54:59;;;;;;;24.30;15.90;;;;;;;8.20;100.00;100375.42;104795;1254;60499;-47
2023/10/25 00:57:26;;;;;;;21.60;15.00;;;;;;;8.21;100.00;100370.41;108043;1257;72646;-50
2023/10/25 00:59:54;;;;;;;17.80;13.10;;;;;;;8.21;100.00;100363.42;104796;1260;67743;-48
2023/10/25 01:02:21;;;;;;;19.70;14.10;;;;;;;8.23;100.00;100365.89;104690;1258;72860;-47
2023/10/25 01:04:48;;;;;;;22.60;14.90;;;;;;;8.25;100.00;100362.79;104690;1253;61719;-49
2023/10/25 01:07:16;;;;;;;20.10;13.60;;;;;;;8.26;100.00;100361.85;104649;1259;60524;-49
2023/10/25 01:09:43;;;;;;;17.60;12.60;;;;;;;8.27;100.00;100365.23;106059;1257;73768;-49
2023/10/25 01:12:11;;;;;;;16.50;11.90;;;;;;;8.28;100.00;100369.13;104525;1253;66858;-49
2023/10/25 01:14:39;;;;;;;16.90;13.40;;;;;;;8.30;100.00;100366.39;104654;1253;73012;-48
2023/10/25 01:17:06;;;;;;;14.70;12.20;;;;;;;8.33;100.00;100364.37;104717;1253;62168;-50
2023/10/25 01:19:34;;;;;;;14.20;11.20;;;;;;;8.35;100.00;100360.54;104868;1254;60535;-47
2023/10/25 01:22:01;;;;;;;13.60;11.00;;;;;;;8.37;100.00;100356.56;104850;1258;72677;-49
2023/10/25 01:24:28;;;;;;;15.00;10.40;;;;;;;8.38;100.00;100353.67;104776;1253;68129;-48
2023/10/25 01:26:57;;;;;;;18.90;10.60;;;;;;;8.40;100.00;100349.50;105355;1256;72410;-49
2023/10/25 01:29:25;;;;;;;16.10;10.70;;;;;;;8.41;100.00;100347.33;104652;1255;60552;-49
2023/10/25 01:31:52;;;;;;;12.50;9.30;;;;;;;8.43;100.00;100351.53;104708;1253;60390;-49
2023/10/25 01:34:19;;;;;;;14.90;9.00;;;;;;;8.45;100.00;100351.14;104821;1256;72870;-48
2023/10/25 01:36:47;;;;;;;13.20;10.20;;;;;;;8.46;100.00;100350.92;106640;1260;67706;-49
2023/10/25 01:39:14;;;;;;;13.20;8.80;;;;;;;8.46;100.00;100346.98;106488;1258;73118;-50
2023/10/25 01:41:42;;;;;;;11.00;9.30;;;;;;;8.48;100.00;100344.61;104630;1257;62353;-49
2023/10/25 01:44:09;;;;;;;10.80;8.30;;;;;;;8.50;100.00;100344.38;104950;1253;60753;-49
2023/10/25 01:46:36;;;;;;;13.30;8.80;;;;;;;8.51;100.00;100340.20;104834;1257;75138;-47
2023/10/25 01:49:04;;;;;;;10.60;8.60;;;;;;;8.53;100.00;100332.46;104891;1258;66827;-49
2023/10/25 01:51:31;;;;;;;8.30;7.50;;;;;;;8.54;100.00;100329.57;104812;1257;73152;-49
2023/10/25 01:53:59;;;;;;;11.30;8.10;;;;;;;8.55;100.00;100327.93;104607;1254;61897;-49
2023/10/25 01:56:26;;;;;;;9.30;8.00;;;;;;;8.57;100.00;100327.52;104954;1259;60449;-49
2023/10/25 01:58:53;;;;;;;13.10;7.80;;;;;;;8.58;100.00;100330.35;104997;1257;74367;-48
2023/10/25 02:01:21;;;;;;;13.10;7.20;;;;;;;8.59;100.00;100321.74;104692;1259;66460;-49
2023/10/25 02:03:48;;;;;;;8.00;7.00;;;;;;;8.60;100.00;100324.00;104660;1258;73625;-49
2023/10/25 02:06:16;;;;;;;9.70;6.80;;;;;;;8.61;100.00;100322.18;104690;1258;62200;-48
2023/10/25 02:08:43;;;;;;;7.10;6.40;;;;;;;8.64;100.00;100319.44;104815;1254;60618;-49
2023/10/25 02:11:15;;;;;;;8.80;5.40;;;;;;;8.66;100.00;100322.59;109035;1250;71897;-48
2023/10/25 02:13:42;;;;;;;8.90;5.60;;;;;;;8.67;100.00;100322.36;109127;1256;69978;-50
2023/10/25 02:16:14;;;;;;;7.10;5.50;;;;;;;8.69;100.00;100309.40;109035;1250;72669;-50
2023/10/25 02:18:42;;;;;;;7.40;6.20;;;;;;;8.72;100.00;100306.83;108996;1251;61713;-50
2023/10/25 02:21:10;;;;;;;8.10;5.80;;;;;;;8.74;100.00;100306.40;108972;1257;60468;-48
2023/10/25 02:23:38;;;;;;;8.00;5.00;;;;;;;8.77;100.00;100303.98;109103;1252;72647;-50
2023/10/25 02:26:06;;;;;;;5.60;4.60;;;;;;;8.79;100.00;100307.11;109093;1256;66509;-49
2023/10/25 02:28:33;;;;;;;5.40;4.40;;;;;;;8.82;100.00;100315.98;109205;1251;72668;-49
2023/10/25 02:31:01;;;;;;;7.00;5.60;;;;;;;8.85;100.00;100311.78;108949;1251;62242;-47
2023/10/25 02:33:28;;;;;;;5.60;4.90;;;;;;;8.87;100.00;100307.94;109041;1254;59662;-48
2023/10/25 02:35:56;;;;;;;9.10;4.90;;;;;;;8.90;100.00;100309.46;109016;1251;71899;-49
2023/10/25 02:38:23;;;;;;;7.60;6.20;;;;;;;8.92;100.00;100306.70;109186;1256;66666;-48
2023/10/25 02:40:51;;;;;;;7.90;5.90;;;;;;;8.94;100.00;100302.67;109107;1251;71450;-50
2023/10/25 02:43:18;;;;;;;5.60;5.00;;;;;;;8.97;100.00;100302.25;109125;1256;61614;-51
2023/10/25 02:45:46;;;;;;;6.60;4.90;;;;;;;8.99;100.00;100301.11;109007;1254;58811;-50
2023/10/25 02:48:13;;;;;;;8.20;5.10;;;;;;;9.02;100.00;100301.87;108970;1251;74929;-50
2023/10/25 02:50:40;;;;;;;7.70;5.50;;;;;;;9.05;100.00;100300.54;108943;1254;66435;-50
2023/10/25 02:53:08;;;;;;;6.30;5.40;;;;;;;9.06;100.00;100297.28;108910;1256;72213;-49
2023/10/25 02:55:35;;;;;;;7.30;5.50;;;;;;;9.07;100.00;100290.99;108950;1256;61751;-50
2023/10/25 02:58:03;;;;;;;7.70;5.90;;;;;;;9.08;100.00;100287.19;105331;1254;62022;-47
2023/10/25 03:00:30;;;;;;;9.40;6.20;;;;;;;9.09;100.00;100286.80;104586;1257;72832;-50
2023/10/25 03:02:58;;;;;;;10.10;6.80;;;;;;;9.10;100.00;100281.77;104507;1251;69066;-49
2023/10/25 03:05:25;;;;;;;9.40;6.90;;;;;;;9.10;100.00;100274.95;104546;1256;72737;-48
2023/10/25 03:07:53;;;;;;;12.10;7.50;;;;;;;9.09;100.00;100273.04;104581;1256;61766;-48
2023/10/25 03:10:21;;;;;;;9.10;6.80;;;;;;;9.09;100.00;100268.73;104662;1257;60518;-48
2023/10/25 03:12:48;;;;;;;9.30;7.50;;;;;;;9.08;100.00;100263.38;104616;1253;74434;-47
2023/10/25 03:15:17;;;;;;;7.50;6.20;;;;;;;9.08;100.00;100263.73;104648;1256;68409;-50
2023/10/25 03:17:45;;;;;;;9.50;7.00;;;;;;;9.08;100.00;100259.09;106119;1256;72751;-47
2023/10/25 03:20:12;;;;;;;6.80;6.00;;;;;;;9.08;100.00;100263.03;104680;1257;61641;-48
2023/10/25 03:22:40;;;;;;;9.80;7.50;;;;;;;9.07;100.00;100262.86;104441;1257;62109;-49
2023/10/25 03:25:07;;;;;;;8.00;6.40;;;;;;;9.07;100.00;100258.94;104613;1254;73961;-49
2023/10/25 03:27:35;;;;;;;10.00;6.30;;;;;;;9.07;100.00;100255.18;104414;1251;69394;-48
2023/10/25 03:30:04;;;;;;;9.00;6.30;;;;;;;9.06;100.00;100253.96;106395;1254;70485;-47
2023/10/25 03:32:32;;;;;;;9.70;7.20;;;;;;;9.05;100.00;100248.61;105080;1255;61757;-50
2023/10/25 03:35:00;;;;;;;9.10;7.10;;;;;;;9.04;100.00;100244.70;105032;1252;61887;-50
2023/10/25 03:37:28;;;;;;;8.50;6.20;;;;;;;9.04;100.00;100241.85;104600;1258;74938;-48
2023/10/25 03:39:55;;;;;;;9.00;7.20;;;;;;;9.03;100.00;100239.17;104694;1256;66970;-50
2023/10/25 03:42:23;;;;;;;6.70;6.00;;;;;;;9.03;100.00;100237.94;106875;1259;71492;-47
2023/10/25 03:44:50;;;;;;;10.10;7.00;;;;;;;9.01;100.00;100235.68;104654;1260;61529;-49
2023/10/25 03:47:17;;;;;;;12.80;6.10;;;;;;;9.01;100.00;100235.36;104835;1253;62156;-47
2023/10/25 03:49:45;;;;;;;10.50;7.70;;;;;;;9.00;100.00;100230.20;104812;1251;73813;-50
2023/10/25 03:52:12;;;;;;;7.60;6.00;;;;;;;8.99;100.00;100231.64;104745;1257;67070;-50
2023/10/25 03:54:39;;;;;;;10.80;7.40;;;;;;;8.98;100.00;100227.02;107483;1256;71776;-47
2023/10/25 03:57:07;;;;;;;7.90;6.60;;;;;;;8.99;100.00;100231.30;104740;1254;60650;-49
2023/10/25 03:59:34;;;;;;;9.90;7.20;;;;;;;8.99;100.00;100228.42;104659;1257;60565;-48
2023/10/25 04:02:02;;;;;;;10.10;7.40;;;;;;;8.99;100.00;100223.60;104660;1260;73878;-48
2023/10/25 04:04:29;;;;;;;9.80;6.80;;;;;;;8.99;100.00;100220.20;108937;1257;65039;-52
2023/10/25 04:06:57;;;;;;;8.70;6.90;;;;;;;8.98;100.00;100222.36;108902;1252;72686;-48
2023/10/25 04:09:24;;;;;;;11.00;7.20;;;;;;;8.98;100.00;100221.65;104590;1265;61580;-46
2023/10/25 04:11:52;;;;;;;9.20;7.20;;;;;;;8.98;100.00;100213.79;104605;1254;60703;-52
2023/10/25 04:14:19;;;;;;;8.70;6.50;;;;;;;8.98;100.00;100216.11;104826;1251;72677;-50
2023/10/25 04:16:47;;;;;;;9.70;7.80;;;;;;;8.98;100.00;100213.40;104902;1256;67633;-48
2023/10/25 04:19:14;;;;;;;12.70;7.60;;;;;;;8.98;100.00;100212.34;105045;1256;73153;-51
2023/10/25 04:21:42;;;;;;;8.80;8.00;;;;;;;8.97;100.00;100210.42;104888;1256;61791;-49
2023/10/25 04:24:09;;;;;;;10.00;8.10;;;;;;;8.96;100.00;100212.25;104849;1251;60521;-51
2023/10/25 04:26:37;;;;;;;13.00;7.90;;;;;;;8.96;100.00;100215.11;104535;1254;74329;-49
2023/10/25 04:29:04;;;;;;;15.50;8.40;;;;;;;8.96;100.00;100212.23;104977;1254;66725;-48
2023/10/25 04:31:32;;;;;;;8.50;7.70;;;;;;;8.97;100.00;100204.69;109017;1256;71549;-50
2023/10/25 04:34:00;;;;;;;9.90;7.80;;;;;;;8.97;100.00;100202.01;105060;1259;60563;-50
2023/10/25 04:36:27;;;;;;;10.40;8.50;;;;;;;8.97;100.00;100195.73;104771;1258;60547;-49
2023/10/25 04:38:54;;;;;;;8.60;7.60;;;;;;;8.97;100.00;100197.70;104921;1257;73762;-50
2023/10/25 04:41:22;;;;;;;11.80;7.60;;;;;;;8.96;100.00;100196.65;104933;1255;65527;-50
2023/10/25 04:43:49;;;;;;;9.40;7.80;;;;;;;8.95;100.00;100189.73;104697;1254;71486;-49
2023/10/25 04:46:17;;;;;;;7.20;6.50;;;;;;;8.93;100.00;100186.40;104569;1258;60429;-50
2023/10/25 04:48:44;;;;;;;12.60;8.80;;;;;;;8.92;100.00;100178.19;105858;1254;60427;-51
2023/10/25 04:51:13;;;;;;;8.40;7.20;;;;;;;8.91;100.00;100171.25;104872;1260;72631;-50
2023/10/25 04:53:40;;;;;;;8.70;7.30;;;;;;;8.91;100.00;100163.75;104923;1257;66520;-49
2023/10/25 04:56:08;;;;;;;11.70;7.90;;;;;;;8.90;100.00;100157.50;104933;1253;71438;-48
2023/10/25 04:58:35;;;;;;;9.70;8.40;;;;;;;8.91;100.00;100156.75;104744;1255;60657;-51
2023/10/25 05:01:13;;;;;;;9.50;8.30;;;;;;;8.91;100.00;100154.78;104895;1251;60486;-49
2023/10/25 05:03:43;;;;;;;10.10;8.10;;;;;;;8.93;100.00;100160.81;109078;1251;73826;-51
2023/10/25 05:06:11;;;;;;;11.50;7.80;;;;;;;8.92;100.00;100155.81;109001;1251;67250;-51
2023/10/25 05:08:39;;;;;;;9.90;7.80;;;;;;;8.93;100.00;100143.27;108992;1251;71456;-50
2023/10/25 05:11:07;;;;;;;9.80;7.90;;;;;;;8.93;100.00;100142.70;109139;1253;61728;-50
2023/10/25 05:13:34;;;;;;;10.50;9.00;;;;;;;8.94;100.00;100139.09;109048;1251;60616;-52
2023/10/25 05:16:04;;;;;;;10.00;9.00;;;;;;;8.95;100.00;100135.30;109060;1254;72664;-53
2023/10/25 05:18:32;;;;;;;10.80;9.50;;;;;;;8.96;100.00;100130.24;109141;1251;65227;-52
2023/10/25 05:21:01;;;;;;;10.30;9.30;;;;;;;8.98;100.00;100123.93;109006;1252;71266;-51
2023/10/25 05:23:32;;;;;;;9.50;8.30;;;;;;;9.00;100.00;100124.23;109062;1251;59455;-51
2023/10/25 05:26:00;;;;;;;10.60;9.10;;;;;;;9.02;100.00;100120.91;108876;1251;179475;-49
2023/10/25 05:30:22;;;;;;;11.20;8.90;;;;;;;9.07;100.00;100205.76;101836;1293;601086;-53
2023/10/25 05:32:50;;;;;;;11.40;9.40;;;;;;;9.07;100.00;100237.25;104102;1268;61963;-50
2023/10/25 05:35:18;;;;;;;10.20;9.20;;;;;;;9.09;100.00;100215.73;104173;1265;58990;-51
2023/10/25 05:37:45;;;;;;;15.80;9.10;;;;;;;9.10;100.00;100192.97;108224;1265;72514;-53
2023/10/25 05:40:13;;;;;;;11.30;10.10;;;;;;;9.10;100.00;100180.20;108213;1266;66884;-53
2023/10/25 05:42:47;;;;;;;10.80;9.80;;;;;;;9.11;100.00;100169.98;108097;1266;73199;-52
2023/10/25 05:45:15;;;;;;;10.90;9.80;;;;;;;9.13;100.00;100163.11;107733;1263;61352;-51
2023/10/25 05:47:43;;;;;;;11.20;8.90;;;;;;;9.14;100.00;100153.79;108246;1263;59579;-51
2023/10/25 05:50:11;;;;;;;12.00;9.40;;;;;;;9.13;100.00;100153.81;107473;1263;72768;-50
2023/10/25 05:52:44;;;;;;;11.10;9.50;;;;;;;9.14;100.00;100139.84;104030;1263;66765;-52
2023/10/25 05:55:15;;;;;;;13.80;9.90;;;;;;;9.15;100.00;100135.33;108143;1264;71465;-51
2023/10/25 05:57:43;;;;;;;11.30;10.10;;;;;;;9.16;100.00;100127.40;108301;1263;62171;-51
2023/10/25 06:00:11;;;;;;;8.60;7.80;;;;;;;9.17;100.00;100119.66;108202;1263;60505;-53
2023/10/25 06:02:38;;;;;;;10.10;8.20;;;;;;;9.20;100.00;100115.07;108267;1267;71839;-52
2023/10/25 06:05:06;;;;;;;9.20;7.60;;;;;;;9.22;100.00;100111.40;108048;1263;67505;-52
2023/10/25 06:07:39;;;;;;;9.10;8.20;;;;;;;9.24;100.00;100104.00;108173;1266;73211;-49
2023/10/25 06:10:07;;;;;;;9.80;8.80;;;;;;;9.25;100.00;100098.08;108318;1263;61683;-50
2023/10/25 06:12:34;;;;;;;10.00;9.00;;;;;;;9.26;100.00;100093.91;108321;1263;58902;-50
2023/10/25 06:15:04;;;;;;;7.60;6.90;;;;;;;9.28;100.00;100087.16;105402;1268;73179;-50
2023/10/25 06:17:31;;;;;;;6.40;5.80;;;;;;;9.30;100.00;100086.92;104768;1261;67489;-49
2023/10/25 06:19:59;;;;;;;10.00;7.40;;;;;;;9.33;100.00;100084.67;105181;1262;70176;-49
2023/10/25 06:22:26;;;;;;;7.50;6.70;;;;;;;9.34;100.00;100080.34;104238;1260;61067;-51
2023/10/25 06:24:54;;;;;;;7.20;6.50;;;;;;;9.36;100.00;100084.19;104239;1260;60105;-50
2023/10/25 06:27:21;;;;;;;7.80;6.80;;;;;;;9.38;100.00;100083.03;104444;1260;71139;-51
2023/10/25 06:29:48;;;;;;;6.00;5.30;;;;;;;9.40;100.00;100077.06;104241;1260;67594;-52
2023/10/25 06:32:16;;;;;;;6.40;5.80;;;;;;;9.42;100.00;100069.66;104206;1260;72729;-50
2023/10/25 06:34:43;;;;;;;6.40;5.30;;;;;;;9.43;100.00;100065.14;104436;1259;63882;-50
2023/10/25 06:37:11;;;;;;;6.60;4.90;;;;;;;9.45;100.00;100063.79;104524;1261;59653;-51
2023/10/25 06:39:39;;;;;;;5.50;4.90;;;;;;;9.47;100.00;100058.15;104323;1259;73098;-51
2023/10/25 06:42:07;;;;;;;4.60;4.20;;;;;;;9.49;100.00;100062.02;105543;1265;67036;-50
2023/10/25 06:44:36;;;;;;;4.60;4.20;;;;;;;9.51;100.00;100058.90;104739;1260;71086;-49
2023/10/25 06:47:06;;;;;;;4.10;3.80;;;;;;;9.53;100.00;100062.21;104952;1263;62314;-50
2023/10/25 06:49:34;;;;;;;5.80;5.20;;;;;;;9.54;100.00;100065.94;108271;1259;60093;-51
2023/10/25 06:52:01;;;;;;;6.70;4.70;;;;;;;9.55;100.00;100062.86;104410;1260;72792;-51
2023/10/25 06:54:29;;;;;;;4.50;4.10;;;;;;;9.55;100.00;100060.33;104587;1265;66020;-50
2023/10/25 06:56:57;;;;;;;5.20;4.20;;;;;;;9.57;100.00;100062.80;104335;1261;71495;-50
2023/10/25 06:59:25;;;;;;;5.90;4.00;;;;;;;9.57;100.00;100057.21;104369;1260;60505;-51
2023/10/25 07:01:57;;;;;;;4.00;3.80;;;;;;;9.59;100.00;100065.60;108168;1259;58830;-52
2023/10/25 07:04:25;;;;;;;5.20;3.60;;;;;;;9.60;100.00;100064.46;104391;1260;71854;-51
2023/10/25 07:06:52;;;;;;;5.00;4.60;;;;;;;9.62;100.00;100062.59;104265;1265;65652;-51
2023/10/25 07:09:20;;;;;;;4.40;3.40;;;;;;;9.63;100.00;100062.88;104173;1265;71724;-52
2023/10/25 07:11:47;;;;;;;3.50;3.20;;;;;;;9.65;100.00;100061.23;104341;1260;60463;-52
2023/10/25 07:14:14;;;;;;;6.00;3.60;;;;;;;9.66;100.00;100056.15;104166;1259;59875;-53
2023/10/25 07:16:42;;;;;;;2.80;2.60;;;;;;;9.67;100.00;100060.05;104283;1265;73563;-51
2023/10/25 07:19:09;;;;;;;1.90;1.80;;;;;;;9.68;100.00;100059.67;104507;1259;67014;-50
2023/10/25 07:21:37;;;;;;;3.90;3.20;;;;;;;9.69;100.00;100063.04;104287;1260;71958;-51
2023/10/25 07:24:05;;;;;;;2.70;2.50;;;;;;;9.70;100.00;100066.39;104407;1259;61786;-52
2023/10/25 07:26:32;;;;;;;2.70;2.50;;;;;;;9.71;100.00;100069.38;104382;1260;61581;-51
2023/10/25 07:28:59;;;;;;;2.10;2.00;;;;;;;9.74;100.00;100070.17;104346;1264;71296;-50
2023/10/25 07:31:27;;;;;;;4.00;2.80;;;;;;;9.76;100.00;100068.28;104252;1264;65625;-51
2023/10/25 07:33:54;;;;;;;4.20;2.60;;;;;;;9.78;100.00;100063.89;104630;1261;72759;-50
2023/10/25 07:36:23;;;;;;;2.80;2.50;;;;;;;9.80;100.00;100065.05;104286;1264;61712;-50
2023/10/25 07:38:51;;;;;;;3.90;2.80;;;;;;;9.83;100.00;100065.14;108526;1259;59109;-51
2023/10/25 07:41:19;;;;;;;2.30;2.10;;;;;;;9.86;100.00;100063.77;104671;1259;72331;-52
2023/10/25 07:43:46;;;;;;;2.00;1.80;;;;;;;9.88;100.00;100065.63;104154;1264;67043;-53
2023/10/25 07:46:13;;;;;;;2.60;2.20;;;;;;;9.91;100.00;100062.68;104403;1264;73130;-51
2023/10/25 07:48:41;;;;;;;2.50;2.20;;;;;;;9.93;100.00;100055.06;104480;1262;60494;-52
2023/10/25 07:51:08;;;;;;;1.80;1.50;;;;;;;9.95;100.00;100063.27;104299;1259;59678;-51
2023/10/25 07:53:35;;;;;;;3.10;2.10;;;;;;;9.96;100.00;100060.10;104066;1260;73820;-52
2023/10/25 07:56:03;;;;;;;3.70;2.60;;;;;;;9.97;100.00;100048.98;104320;1265;67574;-52
2023/10/25 07:58:33;;;;;;;2.10;1.70;;;;;;;9.98;100.00;100058.61;108213;1259;71079;-52
2023/10/25 08:01:01;;;;;;;3.50;2.00;;;;;;;9.99;100.00;100057.86;108539;1259;60436;-52
2023/10/25 08:03:29;;;;;;;1.70;1.60;;;;;;;10.01;100.00;100054.56;108539;1259;60099;-52
2023/10/25 08:05:56;;;;;;;1.60;1.50;;;;;;;10.02;100.00;100052.00;108533;1259;73490;-53
2023/10/25 08:08:24;;;;;;;1.90;1.40;;;;;;;10.04;100.00;100055.33;108608;1259;65663;-52
2023/10/25 08:10:59;;;;;;;1.90;1.70;;;;;;;10.07;100.00;100052.52;108574;1259;73345;-52
2023/10/25 08:13:27;;;;;;;2.60;1.50;;;;;;;10.10;100.00;100053.12;107661;1265;61770;-51
2023/10/25 08:15:58;;;;;;;3.00;1.40;;;;;;;10.12;100.00;100046.57;108538;1259;60199;-53
2023/10/25 08:18:28;;;;;;;2.10;1.50;;;;;;;10.13;100.00;100042.36;108602;1259;71520;-53
2023/10/25 08:20:56;;;;;;;4.30;1.20;;;;;;;10.15;100.00;100043.35;108508;1259;66877;-52
2023/10/25 08:23:27;;;;;;;1.70;1.60;;;;;;;10.18;100.00;100047.95;108494;1259;70624;-53
2023/10/25 08:26:00;;;;;;;1.40;1.30;;;;;;;10.19;100.00;100038.93;108560;1260;61612;-53
2023/10/25 08:28:28;;;;;;;1.30;1.00;;;;;;;10.22;100.00;100039.70;108555;1260;58835;-52
2023/10/25 08:30:55;;;;;;;3.40;1.10;;;;;;;10.23;100.00;100037.11;108555;1259;75181;-53
2023/10/25 08:33:23;;;;;;;1.10;0.90;;;;;;;10.26;100.00;100040.63;108523;1260;68793;-53
2023/10/25 08:36:03;;;;;;;1.20;1.10;;;;;;;10.28;100.00;100039.49;105206;1262;75846;-51
2023/10/25 08:38:30;;;;;;;1.70;1.30;;;;;;;10.29;100.00;100050.92;105167;1261;61915;-50
2023/10/25 08:41:07;;;;;;;1.40;1.20;;;;;;;10.29;100.00;100038.88;105499;1260;59741;-53
2023/10/25 08:43:36;;;;;;;2.20;1.20;;;;;;;10.30;100.00;100044.41;104255;1265;73029;-52
2023/10/25 08:46:04;;;;;;;1.10;0.90;;;;;;;10.31;100.00;100036.46;104393;1265;65778;-52
2023/10/25 08:48:32;;;;;;;1.80;1.10;;;;;;;10.31;100.00;100037.70;107547;1260;71464;-53
2023/10/25 08:51:00;;;;;;;1.30;0.90;;;;;;;10.31;100.00;100034.83;104370;1265;61167;-51
2023/10/25 08:53:28;;;;;;;1.50;1.00;;;;;;;10.31;100.00;100035.19;105033;1260;59674;-52
2023/10/25 08:55:57;;;;;;;1.30;1.20;;;;;;;10.32;100.00;100027.99;104390;1259;71851;-51
2023/10/25 08:58:25;;;;;;;1.40;1.10;;;;;;;10.32;100.00;100027.98;105508;1260;66829;-52
2023/10/25 09:00:53;;;;;;;1.90;0.80;;;;;;;10.33;100.00;100024.89;108252;1260;72757;-51
2023/10/25 09:03:30;;;;;;;1.00;0.90;;;;;;;10.35;100.00;100026.08;105064;1259;60550;-53
2023/10/25 09:06:02;;;;;;;1.10;0.90;;;;;;;10.36;100.00;100028.90;104352;1262;59751;-49
2023/10/25 09:08:30;;;;;;;1.20;1.10;;;;;;;10.37;100.00;100027.98;104371;1260;73137;-53
2023/10/25 09:11:02;;;;;;;1.10;1.00;;;;;;;10.36;100.00;100018.13;104550;1259;68020;-52
2023/10/25 09:13:30;;;;;;;0.90;0.80;;;;;;;10.35;100.00;100014.77;104690;1259;72433;-50
2023/10/25 09:16:12;;;;;;;1.20;1.10;;;;;;;10.34;100.00;100001.15;104084;1259;61778;-49
2023/10/25 09:18:40;;;;;;;1.80;0.90;;;;;;;10.35;100.00;100009.02;104390;1262;59663;-52
2023/10/25 09:21:10;;;;;;;1.10;0.80;;;;;;;10.34;100.00;99999.19;105097;1260;72349;-52
2023/10/25 09:23:39;;;;;;;2.40;1.10;;;;;;;10.34;100.00;99997.23;104565;1259;65642;-50
2023/10/25 09:26:18;;;;;;;1.50;0.90;;;;;;;10.34;100.00;99987.52;107776;1264;71505;-52
2023/10/25 09:28:46;;;;;;;1.40;1.10;;;;;;;10.34;100.00;99985.02;105083;1259;63163;-50
2023/10/25 09:31:26;;;;;;;2.70;1.00;;;;;;;10.35;100.00;99972.45;104516;1264;59772;-49
2023/10/25 09:33:58;;;;;;;1.30;0.90;;;;;;;10.34;100.00;99975.68;105086;1257;71660;-50
2023/10/25 09:36:26;;;;;;;2.70;0.80;;;;;;;10.34;100.00;99974.98;104505;1256;67304;-51
2023/10/25 09:38:55;;;;;;;1.40;0.80;;;;;;;10.35;100.00;99968.14;104901;1258;72706;-51
2023/10/25 09:41:24;;;;;;;1.50;0.80;;;;;;;10.35;100.00;99966.15;105464;1259;60556;-50
2023/10/25 09:43:52;;;;;;;0.90;0.70;;;;;;;10.34;100.00;99964.02;104428;1256;61047;-53
2023/10/25 09:46:21;;;;;;;1.50;0.70;;;;;;;10.34;100.00;99959.37;105330;1254;74810;-50
2023/10/25 09:48:58;;;;;;;0.70;0.70;;;;;;;10.34;100.00;99956.33;105755;1253;66229;-51
2023/10/25 09:51:36;;;;;;;0.70;0.70;;;;;;;10.35;100.00;99963.98;104885;1253;74592;-52
2023/10/25 09:54:11;;;;;;;0.90;0.70;;;;;;;10.38;100.00;99965.51;104951;1253;61692;-49
2023/10/25 09:56:39;;;;;;;0.80;0.70;;;;;;;10.38;100.00;99964.37;108794;1251;58897;-50
2023/10/25 09:59:07;;;;;;;1.40;0.70;;;;;;;10.39;100.00;99961.30;105256;1253;72716;-51
2023/10/25 10:01:35;;;;;;;1.40;0.70;;;;;;;10.40;100.00;99958.38;105062;1253;70127;-51
2023/10/25 10:04:07;;;;;;;1.20;0.70;;;;;;;10.40;100.00;99952.80;104804;1258;71363;-51
2023/10/25 10:06:46;;;;;;;0.80;0.80;;;;;;;10.42;100.00;99954.16;105128;1253;62219;-53
2023/10/25 10:09:32;;;;;;;0.60;0.60;;;;;;;10.43;100.00;99954.86;104742;1253;60505;-51
2023/10/25 10:12:06;;;;;;;2.00;0.70;;;;;;;10.43;100.00;99959.88;105374;1255;73924;-48
2023/10/25 10:14:37;;;;;;;0.90;0.80;;;;;;;10.44;100.00;99954.46;104794;1253;67741;-52
2023/10/25 10:17:09;;;;;;;0.90;0.80;;;;;;;10.45;100.00;99943.11;104884;1253;72850;-50
2023/10/25 10:19:39;;;;;;;0.90;0.80;;;;;;;10.45;100.00;99946.85;105001;1256;60556;-50
2023/10/25 10:22:13;;;;;;;0.80;0.70;;;;;;;10.47;100.00;99941.40;104736;1253;61164;-51
2023/10/25 10:24:45;;;;;;;0.70;0.60;;;;;;;10.48;100.00;99944.39;104991;1254;72676;-50
2023/10/25 10:27:17;;;;;;;0.70;0.60;;;;;;;10.48;100.00;99937.54;105334;1253;67423;-53
2023/10/25 10:29:48;;;;;;;1.60;0.60;;;;;;;10.50;100.00;99932.29;104889;1253;72736;-51
2023/10/25 10:32:16;;;;;;;0.70;0.60;;;;;;;10.52;100.00;99933.46;105717;1253;60613;-50
2023/10/25 10:34:56;;;;;;;0.70;0.70;;;;;;;10.53;100.00;99928.55;109032;1253;60500;-53
2023/10/25 10:37:31;;;;;;;1.00;0.70;;;;;;;10.54;100.00;99936.41;107045;1253;73952;-49
2023/10/25 10:39:59;;;;;;;1.50;0.70;;;;;;;10.54;100.00;99929.41;104672;1253;67324;-53
2023/10/25 10:42:32;;;;;;;0.80;0.70;;;;;;;10.55;100.00;99923.95;107769;1253;72701;-52
2023/10/25 10:45:04;;;;;;;0.80;0.60;;;;;;;10.56;100.00;99917.45;105163;1257;62197;-52
2023/10/25 10:47:44;;;;;;;1.60;1.00;;;;;;;10.57;100.00;99915.09;108905;1252;58848;-54
2023/10/25 10:50:20;;;;;;;1.20;0.80;;;;;;;10.58;100.00;99918.08;108996;1253;73898;-53
2023/10/25 10:52:48;;;;;;;0.90;0.80;;;;;;;10.58;100.00;99913.61;109019;1253;67529;-48
2023/10/25 10:55:17;;;;;;;1.10;0.70;;;;;;;10.59;100.00;99904.05;109018;1253;71431;-50
2023/10/25 10:57:44;;;;;;;3.70;0.70;;;;;;;10.60;100.00;99899.67;105677;1255;60637;-49
2023/10/25 11:00:32;;;;;;;0.80;0.70;;;;;;;10.63;100.00;99918.41;104806;1258;60483;-50
2023/10/25 11:03:02;;;;;;;0.80;0.60;;;;;;;10.65;100.00;99904.13;104633;1259;72178;-51
2023/10/25 11:05:37;;;;;;;1.10;0.80;;;;;;;10.67;100.00;99908.16;109087;1252;65799;-52
2023/10/25 11:08:08;;;;;;;0.70;0.60;;;;;;;10.69;100.00;99901.81;109054;1253;72731;-49
2023/10/25 11:10:37;;;;;;;1.00;0.70;;;;;;;10.72;100.00;99902.94;109068;1253;60478;-53
2023/10/25 11:13:08;;;;;;;1.30;0.70;;;;;;;10.73;100.00;99894.77;109005;1253;58726;-49
2023/10/25 11:15:36;;;;;;;0.90;0.80;;;;;;;10.76;100.00;99897.19;109122;1253;74514;-50
2023/10/25 11:18:10;;;;;;;0.70;0.70;;;;;;;10.77;100.00;99891.17;108901;1253;66119;-49
2023/10/25 11:20:41;;;;;;;;;;;;;;;10.81;100.00;99897.11;109034;1253;72766;-50